Time;durP1;ratioP1;P1;durP2;ratioP2;P2;SDS_P1;SDS_P2;PMS_P1;PMS_P2;Temp;Humidity;BMP_temperature;BMP_pressure;BME280_temperature;BME280_humidity;BME280_pressure;Samples;Min_cycle;Max_cycle;Signal;HPM_P1;HPM_P2
2023/07/08 00:01:14;;;;;;;6.47;3.83;;;17.40;99.90;;;;;;5075867;28;20173;-80
2023/07/08 00:03:40;;;;;;;5.45;3.60;;;17.20;99.90;;;;;;5075396;28;20205;-80
2023/07/08 00:06:20;;;;;;;7.45;3.85;;;17.20;99.90;;;;;;5075244;28;20177;-80
2023/07/08 00:08:45;;;;;;;8.48;4.45;;;17.10;99.90;;;;;;5057550;28;20169;-81
2023/07/08 00:11:12;;;;;;;7.22;4.07;;;17.00;99.90;;;;;;5057620;28;20185;-81
2023/07/08 00:13:38;;;;;;;8.13;4.15;;;16.90;99.90;;;;;;5057551;28;20214;-80
2023/07/08 00:16:08;;;;;;;7.68;3.70;;;16.90;99.90;;;;;;5075413;28;20174;-81
2023/07/08 00:18:33;;;;;;;6.10;3.72;;;16.80;99.90;;;;;;5056969;28;20646;-81
2023/07/08 00:20:59;;;;;;;5.40;3.72;;;16.80;99.90;;;;;;5057054;28;20225;-81
2023/07/08 00:23:25;;;;;;;5.32;4.22;;;16.80;99.90;;;;;;5057184;28;20200;-79
2023/07/08 00:25:51;;;;;;;5.65;4.38;;;16.80;99.90;;;;;;5057092;28;20189;-81
2023/07/08 00:28:19;;;;;;;5.75;3.92;;;16.80;99.90;;;;;;5074761;28;20181;-81
2023/07/08 00:30:45;;;;;;;6.20;3.67;;;16.80;99.90;;;;;;5075198;28;20219;-81
2023/07/08 00:33:11;;;;;;;8.68;4.35;;;16.70;99.90;;;;;;5075056;28;20205;-80
2023/07/08 00:35:42;;;;;;;8.65;3.58;;;16.70;99.90;;;;;;5057369;28;20174;-80
2023/07/08 00:38:26;;;;;;;5.63;4.38;;;16.80;99.90;;;;;;5075444;28;20174;-79
2023/07/08 00:41:01;;;;;;;5.35;4.18;;;16.80;99.90;;;;;;5076695;28;20162;-80
2023/07/08 00:43:41;;;;;;;6.95;3.88;;;16.80;99.90;;;;;;5059477;28;20201;-78
2023/07/08 00:46:29;;;;;;;5.32;3.80;;;16.90;99.90;;;;;;5058076;28;20652;-78
2023/07/08 00:49:07;;;;;;;5.25;4.25;;;17.00;99.90;;;;;;5074995;28;20214;-78
2023/07/08 00:51:38;;;;;;;7.63;3.95;;;16.90;99.90;;;;;;5056493;28;20182;-79
2023/07/08 00:54:15;;;;;;;5.47;3.70;;;17.00;99.90;;;;;;5056446;28;20209;-79
2023/07/08 00:56:55;;;;;;;6.63;3.95;;;17.10;99.90;;;;;;5057149;28;20181;-78
2023/07/08 00:59:37;;;;;;;4.82;3.65;;;17.10;99.90;;;;;;5056483;28;20257;-78
2023/07/08 01:02:07;;;;;;;6.47;4.20;;;17.20;99.90;;;;;;5074965;28;20162;-78
2023/07/08 01:04:48;;;;;;;9.13;4.00;;;17.20;99.90;;;;;;5056094;28;20205;-78
2023/07/08 01:07:21;;;;;;;5.07;3.80;;;17.10;99.90;;;;;;5056242;28;20203;-79
2023/07/08 01:09:51;;;;;;;5.55;3.65;;;17.00;99.90;;;;;;5074228;28;20154;-78
2023/07/08 01:12:22;;;;;;;8.68;4.10;;;17.00;99.90;;;;;;5056217;28;20173;-79
2023/07/08 01:14:53;;;;;;;8.52;4.30;;;16.90;99.90;;;;;;5074273;28;20251;-79
2023/07/08 01:17:20;;;;;;;6.65;4.13;;;16.90;99.90;;;;;;5074666;28;20178;-79
2023/07/08 01:19:46;;;;;;;4.70;4.05;;;16.80;99.90;;;;;;5074425;28;20231;-79
2023/07/08 01:22:12;;;;;;;5.55;3.95;;;16.70;99.90;;;;;;5074541;28;20150;-79
2023/07/08 01:24:41;;;;;;;8.43;4.22;;;16.70;99.90;;;;;;5056828;28;20200;-79
2023/07/08 01:27:16;;;;;;;5.65;4.05;;;16.70;99.90;;;;;;5074657;28;20185;-78
2023/07/08 01:29:42;;;;;;;4.97;3.85;;;16.60;99.90;;;;;;5074668;28;20173;-79
2023/07/08 01:32:13;;;;;;;6.47;4.10;;;16.60;99.90;;;;;;5078729;28;20161;-79
2023/07/08 01:34:39;;;;;;;7.20;4.53;;;16.50;99.90;;;;;;5078405;28;20247;-78
2023/07/08 01:37:09;;;;;;;7.32;4.10;;;16.40;99.90;;;;;;5079089;28;20178;-79
2023/07/08 01:39:34;;;;;;;6.32;4.28;;;16.30;99.90;;;;;;5062014;28;20209;-79
2023/07/08 01:42:00;;;;;;;9.90;4.45;;;16.30;99.90;;;;;;5080515;28;20166;-79
2023/07/08 01:44:35;;;;;;;7.60;4.20;;;16.20;99.90;;;;;;5080393;28;20194;-79
2023/07/08 01:47:16;;;;;;;5.15;4.28;;;16.20;99.90;;;;;;5061954;28;20181;-79
2023/07/08 01:49:44;;;;;;;4.72;4.18;;;16.20;99.90;;;;;;5061302;28;20729;-78
2023/07/08 01:52:11;;;;;;;8.05;4.40;;;16.20;99.90;;;;;;5060997;28;20182;-79
2023/07/08 01:54:37;;;;;;;7.15;4.47;;;16.10;99.90;;;;;;5061506;28;20222;-79
2023/07/08 01:57:03;;;;;;;6.38;4.55;;;16.00;99.90;;;;;;5078597;28;20236;-79
2023/07/08 01:59:29;;;;;;;5.82;4.22;;;16.00;99.90;;;;;;5078234;28;20174;-78
2023/07/08 02:01:55;;;;;;;6.32;4.05;;;15.90;99.90;;;;;;5078128;28;20539;-79
2023/07/08 02:04:25;;;;;;;6.22;4.40;;;15.90;99.90;;;;;;5060517;28;20555;-79
2023/07/08 02:06:55;;;;;;;11.68;4.60;;;15.90;99.90;;;;;;5077989;28;20178;-79
2023/07/08 02:09:22;;;;;;;5.72;3.85;;;15.90;99.90;;;;;;5077779;28;20218;-79
2023/07/08 02:11:48;;;;;;;6.38;4.40;;;15.90;99.90;;;;;;5059737;28;20178;-78
2023/07/08 02:14:13;;;;;;;5.95;4.35;;;15.90;99.90;;;;;;5078119;28;20570;-79
2023/07/08 02:16:39;;;;;;;5.93;4.40;;;15.90;99.90;;;;;;5077904;28;20567;-79
2023/07/08 02:19:05;;;;;;;7.82;5.03;;;15.80;99.90;;;;;;5060071;28;20269;-79
2023/07/08 02:21:31;;;;;;;6.55;4.50;;;15.70;99.90;;;;;;5060036;28;20195;-79
2023/07/08 02:23:57;;;;;;;6.55;4.35;;;15.70;99.90;;;;;;5077430;28;20606;-79
2023/07/08 02:26:23;;;;;;;6.18;4.22;;;15.70;99.90;;;;;;5059867;28;20186;-79
2023/07/08 02:28:49;;;;;;;6.65;4.30;;;15.70;99.90;;;;;;5059795;28;20684;-79
2023/07/08 02:31:15;;;;;;;6.43;4.10;;;15.70;99.90;;;;;;5077857;28;20178;-79
2023/07/08 02:33:41;;;;;;;5.95;4.18;;;15.60;99.90;;;;;;5059595;28;20743;-79
2023/07/08 02:36:06;;;;;;;7.10;4.45;;;15.60;99.90;;;;;;5077695;28;20644;-79
2023/07/08 02:38:32;;;;;;;6.20;4.57;;;15.60;99.90;;;;;;5059449;28;20181;-79
2023/07/08 02:40:59;;;;;;;7.60;4.57;;;15.60;99.90;;;;;;5059144;28;20197;-79
2023/07/08 02:43:25;;;;;;;5.75;4.40;;;15.50;99.90;;;;;;5059587;28;20202;-79
2023/07/08 02:45:51;;;;;;;6.80;4.60;;;15.60;99.90;;;;;;5059223;28;20268;-79
2023/07/08 02:48:18;;;;;;;6.85;4.30;;;15.60;99.90;;;;;;5059327;28;20196;-79
2023/07/08 02:50:44;;;;;;;7.53;4.63;;;15.60;99.90;;;;;;5058932;28;20299;-79
2023/07/08 02:53:10;;;;;;;10.30;4.25;;;15.70;99.90;;;;;;5058360;28;20683;-79
2023/07/08 02:55:36;;;;;;;4.97;3.90;;;15.70;99.90;;;;;;5058985;28;20227;-79
2023/07/08 02:58:01;;;;;;;5.07;4.10;;;15.60;99.90;;;;;;5077272;28;20274;-78
2023/07/08 03:00:28;;;;;;;6.35;4.15;;;15.60;99.90;;;;;;5058684;28;20178;-79
2023/07/08 03:02:53;;;;;;;10.55;4.55;;;15.60;99.90;;;;;;5077316;28;20162;-79
2023/07/08 03:05:19;;;;;;;5.13;3.97;;;15.60;99.90;;;;;;5076853;28;20711;-79
2023/07/08 03:07:45;;;;;;;6.43;4.28;;;15.60;99.90;;;;;;5058405;28;20189;-79
2023/07/08 03:10:10;;;;;;;5.38;4.22;;;15.60;99.90;;;;;;5077328;28;20169;-78
2023/07/08 03:12:36;;;;;;;5.30;4.22;;;15.50;99.90;;;;;;5058477;28;20178;-79
2023/07/08 03:15:03;;;;;;;7.15;4.40;;;15.50;99.90;;;;;;5076461;28;20189;-78
2023/07/08 03:17:28;;;;;;;7.03;4.25;;;15.40;99.90;;;;;;5076828;28;20636;-80
2023/07/08 03:19:54;;;;;;;7.63;4.10;;;15.40;99.90;;;;;;5076540;28;20218;-78
2023/07/08 03:22:20;;;;;;;6.25;4.22;;;15.40;99.90;;;;;;5058377;28;20173;-79
2023/07/08 03:24:46;;;;;;;6.47;4.20;;;15.40;99.90;;;;;;5076836;28;20247;-78
2023/07/08 03:27:13;;;;;;;6.28;4.18;;;15.40;99.90;;;;;;5076449;28;20252;-78
2023/07/08 03:29:40;;;;;;;5.88;4.10;;;15.40;99.90;;;;;;5076870;28;20492;-79
2023/07/08 03:32:09;;;;;;;6.55;4.15;;;15.40;99.90;;;;;;5058084;28;20184;-78
2023/07/08 03:34:35;;;;;;;5.75;4.10;;;15.40;99.90;;;;;;5058232;28;20278;-79
2023/07/08 03:37:00;;;;;;;6.60;4.28;;;15.40;99.90;;;;;;5076184;28;20181;-79
2023/07/08 03:39:26;;;;;;;5.80;4.32;;;15.40;99.90;;;;;;5076222;28;20166;-79
2023/07/08 03:41:53;;;;;;;7.03;3.92;;;15.40;99.90;;;;;;5076588;28;20174;-79
2023/07/08 03:44:19;;;;;;;5.15;4.10;;;15.40;99.90;;;;;;5076091;28;20658;-78
2023/07/08 03:46:47;;;;;;;4.93;4.07;;;15.40;99.90;;;;;;5058040;28;20573;-79
2023/07/08 03:49:13;;;;;;;5.60;4.22;;;15.40;99.90;;;;;;5057793;28;20177;-79
2023/07/08 03:51:41;;;;;;;4.55;3.97;;;15.30;99.90;;;;;;5075813;28;20657;-79
2023/07/08 03:54:11;;;;;;;5.55;4.03;;;15.30;99.90;;;;;;5075013;28;20212;-78
2023/07/08 03:56:37;;;;;;;8.85;4.30;;;15.30;99.90;;;;;;5075776;28;20538;-78
2023/07/08 03:59:03;;;;;;;5.95;3.95;;;15.30;99.90;;;;;;5058253;28;20177;-79
2023/07/08 04:01:28;;;;;;;9.02;4.85;;;15.40;99.90;;;;;;5058791;28;20231;-78
2023/07/08 04:03:57;;;;;;;6.30;4.07;;;15.40;99.90;;;;;;5058813;28;20202;-79
2023/07/08 04:06:24;;;;;;;6.85;4.03;;;15.40;99.90;;;;;;5077441;28;20264;-79
2023/07/08 04:08:51;;;;;;;6.57;3.90;;;15.30;99.90;;;;;;5076633;28;20158;-79
2023/07/08 04:11:19;;;;;;;6.78;4.15;;;15.40;99.90;;;;;;5076842;28;20538;-79
2023/07/08 04:13:45;;;;;;;7.45;4.32;;;15.40;99.90;;;;;;5075869;28;20217;-78
2023/07/08 04:16:16;;;;;;;5.65;3.83;;;15.40;99.90;;;;;;5057418;28;20189;-79
2023/07/08 04:18:42;;;;;;;4.35;3.72;;;15.40;99.90;;;;;;5058967;28;20625;-78
2023/07/08 04:21:07;;;;;;;6.35;3.83;;;15.30;99.90;;;;;;5057891;28;20225;-79
2023/07/08 04:23:33;;;;;;;10.07;4.30;;;15.40;99.90;;;;;;5057462;28;20225;-78
2023/07/08 04:26:00;;;;;;;6.60;4.35;;;15.40;99.90;;;;;;5076694;28;20178;-78
2023/07/08 04:28:25;;;;;;;10.70;4.30;;;15.40;99.90;;;;;;5058580;28;20180;-79
2023/07/08 04:30:51;;;;;;;7.97;4.18;;;15.40;99.90;;;;;;5077736;28;20198;-78
2023/07/08 04:33:18;;;;;;;6.43;4.75;;;15.50;99.90;;;;;;5059267;28;20232;-78
2023/07/08 04:35:44;;;;;;;5.57;4.28;;;15.50;99.90;;;;;;5076236;28;20220;-79
2023/07/08 04:38:21;;;;;;;8.82;4.40;;;15.50;99.90;;;;;;5057460;28;20641;-79
2023/07/08 04:40:48;;;;;;;6.35;4.25;;;15.60;99.90;;;;;;5057314;28;20169;-79
2023/07/08 04:43:14;;;;;;;6.70;4.45;;;15.60;99.90;;;;;;5057163;28;20201;-79
2023/07/08 04:45:43;;;;;;;4.88;3.90;;;15.70;99.90;;;;;;5056917;28;20177;-78
2023/07/08 04:48:16;;;;;;;7.13;4.15;;;15.60;99.90;;;;;;5075078;28;20170;-78
2023/07/08 04:50:43;;;;;;;7.50;4.40;;;15.60;99.90;;;;;;5075377;28;20158;-78
2023/07/08 04:53:10;;;;;;;10.82;4.47;;;15.60;99.90;;;;;;5056705;28;20266;-79
2023/07/08 04:55:41;;;;;;;6.70;4.47;;;15.60;99.90;;;;;;5074824;28;20166;-79
2023/07/08 04:58:07;;;;;;;9.52;4.03;;;15.60;99.90;;;;;;5074808;28;20220;-79
2023/07/08 05:00:33;;;;;;;7.50;3.97;;;15.60;99.90;;;;;;5056871;28;20174;-79
2023/07/08 05:02:58;;;;;;;5.80;4.25;;;15.60;99.90;;;;;;5074593;28;20170;-79
2023/07/08 05:05:24;;;;;;;6.35;4.20;;;15.60;99.90;;;;;;5056247;28;20602;-79
2023/07/08 05:07:51;;;;;;;7.07;4.65;;;15.60;99.90;;;;;;5056002;28;20211;-79
2023/07/08 05:10:17;;;;;;;5.10;4.13;;;15.60;99.90;;;;;;5056552;28;20261;-79
2023/07/08 05:12:43;;;;;;;6.40;4.30;;;15.60;99.90;;;;;;5056509;28;20185;-79
2023/07/08 05:15:09;;;;;;;5.93;4.25;;;15.60;99.90;;;;;;5056543;28;20174;-79
2023/07/08 05:17:37;;;;;;;6.57;4.45;;;15.70;99.90;;;;;;5056813;28;20180;-78
2023/07/08 05:20:05;;;;;;;6.07;4.00;;;15.70;99.90;;;;;;5056231;28;20242;-79
2023/07/08 05:22:31;;;;;;;5.88;4.70;;;15.70;99.90;;;;;;5056446;28;20174;-79
2023/07/08 05:24:57;;;;;;;5.57;4.53;;;15.80;99.90;;;;;;5056330;28;20271;-79
2023/07/08 05:27:23;;;;;;;4.72;4.03;;;15.80;99.90;;;;;;5074938;28;20216;-79
2023/07/08 05:29:50;;;;;;;7.07;4.35;;;16.00;99.90;;;;;;5056591;28;20188;-79
2023/07/08 05:32:16;;;;;;;8.27;4.72;;;16.00;99.90;;;;;;5056241;28;20184;-78
2023/07/08 05:34:44;;;;;;;8.55;4.45;;;16.10;99.90;;;;;;5055949;28;20580;-79
2023/07/08 05:37:11;;;;;;;4.70;3.90;;;16.20;99.90;;;;;;5056189;28;20189;-79
2023/07/08 05:39:36;;;;;;;7.45;4.70;;;16.30;99.90;;;;;;5073990;28;20215;-78
2023/07/08 05:42:02;;;;;;;6.55;4.43;;;16.40;99.90;;;;;;5055943;28;20182;-79
2023/07/08 05:44:28;;;;;;;6.20;4.60;;;16.50;99.90;;;;;;5074250;28;20228;-78
2023/07/08 05:46:54;;;;;;;5.13;4.10;;;16.60;99.90;;;;;;5074125;28;20536;-79
2023/07/08 05:49:20;;;;;;;4.82;4.00;;;16.70;99.90;;;;;;5073699;28;20180;-79
2023/07/08 05:51:46;;;;;;;7.65;4.68;;;16.90;99.90;;;;;;5056268;28;20184;-79
2023/07/08 05:54:12;;;;;;;5.95;3.92;;;16.90;99.90;;;;;;5073412;28;20712;-79
2023/07/08 05:56:38;;;;;;;7.65;4.75;;;17.10;99.90;;;;;;5056564;28;20174;-78
2023/07/08 05:59:04;;;;;;;5.63;4.25;;;17.20;99.90;;;;;;5055931;28;20525;-77
2023/07/08 06:01:31;;;;;;;6.13;4.30;;;17.40;99.90;;;;;;5074016;28;20170;-77
2023/07/08 06:03:59;;;;;;;5.43;3.90;;;17.50;99.90;;;;;;5074417;28;20205;-78
2023/07/08 06:06:26;;;;;;;6.38;3.95;;;17.60;99.90;;;;;;5056108;28;20186;-78
2023/07/08 06:08:52;;;;;;;5.50;4.28;;;17.70;99.90;;;;;;5073905;28;20223;-78
2023/07/08 06:11:17;;;;;;;5.95;4.30;;;17.80;99.90;;;;;;5073889;28;20182;-78
2023/07/08 06:13:43;;;;;;;4.68;3.92;;;17.90;99.90;;;;;;5056199;28;20209;-78
2023/07/08 06:16:09;;;;;;;7.88;4.38;;;18.00;99.90;;;;;;5075122;28;20283;-78
2023/07/08 06:18:35;;;;;;;5.22;3.97;;;18.10;99.90;;;;;;5077405;28;20517;-78
2023/07/08 06:21:01;;;;;;;5.03;3.67;;;18.20;99.90;;;;;;5077248;28;20193;-78
2023/07/08 06:23:27;;;;;;;7.60;4.55;;;18.30;99.90;;;;;;5077002;28;20194;-78
2023/07/08 06:25:53;;;;;;;5.95;4.32;;;18.40;99.90;;;;;;5077169;28;20181;-78
2023/07/08 06:28:20;;;;;;;6.22;3.88;;;18.60;99.90;;;;;;5077095;28;20174;-78
2023/07/08 06:30:46;;;;;;;5.85;3.88;;;18.70;99.90;;;;;;5076583;28;20181;-77
2023/07/08 06:33:12;;;;;;;5.30;3.80;;;18.90;99.90;;;;;;5059243;28;20214;-78
2023/07/08 06:35:38;;;;;;;9.18;4.57;;;19.00;99.90;;;;;;5059156;28;20170;-78
2023/07/08 06:38:05;;;;;;;4.38;3.58;;;19.10;99.90;;;;;;5077043;28;20169;-78
2023/07/08 06:40:32;;;;;;;8.80;4.55;;;19.20;99.90;;;;;;5076892;28;20166;-78
2023/07/08 06:42:58;;;;;;;5.18;4.13;;;19.40;99.90;;;;;;5058498;28;20177;-78
2023/07/08 06:45:23;;;;;;;9.30;4.05;;;19.40;99.90;;;;;;5077096;28;20184;-78
2023/07/08 06:47:49;;;;;;;8.02;3.95;;;19.60;99.90;;;;;;5058809;28;20213;-78
2023/07/08 06:50:15;;;;;;;6.43;4.35;;;19.70;99.90;;;;;;5059074;28;20182;-78
2023/07/08 06:52:41;;;;;;;5.93;4.28;;;19.80;99.90;;;;;;5058144;28;20181;-78
2023/07/08 06:55:09;;;;;;;7.80;4.70;;;20.00;99.90;;;;;;5059472;28;20255;-77
2023/07/08 06:57:38;;;;;;;8.63;4.10;;;20.00;99.90;;;;;;5078167;28;20599;-78
2023/07/08 07:00:06;;;;;;;5.38;4.03;;;20.20;99.90;;;;;;5077413;28;20177;-77
2023/07/08 07:02:32;;;;;;;5.57;4.03;;;20.30;99.90;;;;;;5077646;28;20174;-79
2023/07/08 07:04:57;;;;;;;8.18;4.30;;;20.50;99.90;;;;;;5060786;28;20219;-78
2023/07/08 07:07:23;;;;;;;7.45;4.45;;;20.60;99.90;;;;;;5061482;28;20189;-79
2023/07/08 07:09:49;;;;;;;6.20;4.32;;;20.80;99.90;;;;;;5060541;28;20174;-80
2023/07/08 07:12:15;;;;;;;7.20;4.15;;;20.90;99.90;;;;;;5076656;28;20178;-80
2023/07/08 07:14:41;;;;;;;5.60;4.30;;;21.00;99.90;;;;;;5075820;28;20216;-80
2023/07/08 07:17:06;;;;;;;6.40;4.38;;;21.20;99.90;;;;;;5058748;28;20177;-81
2023/07/08 07:19:32;;;;;;;5.95;4.30;;;21.30;99.90;;;;;;5058412;28;20537;-79
2023/07/08 07:21:58;;;;;;;5.50;4.60;;;21.40;99.90;;;;;;5076807;28;20526;-79
2023/07/08 07:24:24;;;;;;;7.88;4.53;;;21.50;99.90;;;;;;5076698;28;20196;-80
2023/07/08 07:26:50;;;;;;;8.20;4.53;;;21.50;99.90;;;;;;5059269;28;20174;-81
2023/07/08 07:29:17;;;;;;;8.40;4.35;;;21.60;99.90;;;;;;5077740;28;20178;-82
2023/07/08 07:31:43;;;;;;;8.25;5.22;;;21.70;99.90;;;;;;5059589;28;20188;-82
2023/07/08 07:34:11;;;;;;;7.03;5.15;;;21.80;99.90;;;;;;5077251;28;20198;-82
2023/07/08 07:36:37;;;;;;;7.68;4.75;;;22.00;77.00;;;;;;5060120;28;20193;-82
2023/07/08 07:39:03;;;;;;;7.55;4.43;;;22.10;38.90;;;;;;5059776;28;20193;-82
2023/07/08 07:41:29;;;;;;;8.23;5.05;;;22.30;4.30;;;;;;5059626;28;20182;-82
2023/07/08 07:43:55;;;;;;;10.32;4.60;;;22.40;22.90;;;;;;5060526;28;20267;-82
2023/07/08 07:46:21;;;;;;;6.45;4.57;;;22.50;1.00;;;;;;5080384;28;20169;-82
2023/07/08 07:48:47;;;;;;;7.05;4.50;;;22.70;1.00;;;;;;5060836;28;20216;-82
2023/07/08 07:51:13;;;;;;;5.72;4.20;;;22.80;1.00;;;;;;5059485;28;20173;-81
2023/07/08 07:53:39;;;;;;;9.60;5.35;;;22.80;1.00;;;;;;5060322;28;20277;-82
2023/07/08 07:56:06;;;;;;;7.28;4.35;;;22.90;1.00;;;;;;5078259;28;20173;-82
2023/07/08 07:58:32;;;;;;;7.78;5.22;;;23.00;1.00;;;;;;5077807;28;20166;-83
2023/07/08 08:00:58;;;;;;;7.75;5.22;;;23.10;1.00;;;;;;5059207;28;20243;-82
2023/07/08 08:03:24;;;;;;;6.13;4.78;;;23.30;1.00;;;;;;5076590;28;20193;-82
2023/07/08 08:05:50;;;;;;;8.75;5.18;;;23.40;1.00;;;;;;5059201;28;20268;-82
2023/07/08 08:08:16;;;;;;;8.77;5.05;;;23.60;1.00;;;;;;5059106;28;20262;-82
2023/07/08 08:10:43;;;;;;;11.07;5.35;;;23.80;99.90;;;;;;5059003;28;20246;-83
2023/07/08 08:13:11;;;;;;;7.03;4.50;;;24.00;1.00;;;;;;5058646;28;20746;-81
2023/07/08 08:15:37;;;;;;;9.20;5.20;;;24.20;1.00;;;;;;5059002;28;20178;-81
2023/07/08 08:18:03;;;;;;;7.95;4.75;;;24.30;99.90;;;;;;5058996;28;20228;-81
2023/07/08 08:20:29;;;;;;;7.45;4.93;;;24.50;34.40;;;;;;5058639;28;20200;-82
2023/07/08 08:22:55;;;;;;;8.50;5.63;;;24.60;99.90;;;;;;5077292;28;20675;-82
2023/07/08 08:25:23;;;;;;;9.32;5.20;;;24.70;1.00;;;;;;5060609;28;20205;-82
2023/07/08 08:27:49;;;;;;;6.85;5.18;;;24.80;99.90;;;;;;5062100;28;20207;-82
2023/07/08 08:30:15;;;;;;;12.25;5.82;;;24.80;1.00;;;;;;5078258;28;20185;-82
2023/07/08 08:32:41;;;;;;;7.75;5.15;;;25.00;1.00;;;;;;5059967;28;20158;-82
2023/07/08 08:35:07;;;;;;;11.68;5.43;;;25.20;1.00;;;;;;5059448;28;20193;-82
2023/07/08 08:37:33;;;;;;;7.38;5.45;;;25.50;1.00;;;;;;5077275;28;20188;-83
2023/07/08 08:39:59;;;;;;;9.95;5.68;;;25.60;24.80;;;;;;5059024;28;20533;-83
2023/07/08 08:42:34;;;;;;;10.57;5.85;;;25.80;1.00;;;;;;5061375;28;20184;-83
2023/07/08 08:45:02;;;;;;;13.32;5.78;;;26.00;99.90;;;;;;5068522;28;20217;-83
2023/07/08 08:47:31;;;;;;;11.60;6.50;;;26.20;1.00;;;;;;5083421;28;20264;-83
2023/07/08 08:50:24;;;;;;;8.23;6.05;;;26.30;99.90;;;;;;5067299;28;20201;-83
2023/07/08 08:52:51;;;;;;;12.77;6.03;;;26.60;1.00;;;;;;5069835;28;20165;-83
2023/07/08 08:55:17;;;;;;;10.57;6.00;;;26.90;1.00;;;;;;5085904;28;20261;-83
2023/07/08 08:58:14;;;;;;;9.60;6.63;;;26.90;99.90;;;;;;5085655;28;20165;-83
2023/07/08 09:01:00;;;;;;;9.10;5.93;;;27.00;1.00;;;;;;5073839;28;20186;-83
2023/07/08 09:03:42;;;;;;;12.65;6.47;;;27.20;99.90;;;;;;5065632;28;20209;-83
2023/07/08 09:06:22;;;;;;;10.95;6.28;;;27.50;99.90;;;;;;5063527;28;20550;-83
2023/07/08 09:08:51;;;;;;;9.55;5.97;;;27.70;99.90;;;;;;5062339;28;20230;-82
2023/07/08 09:11:45;;;;;;;10.02;5.60;;;27.90;99.90;;;;;;5062472;28;20178;-83
2023/07/08 09:14:25;;;;;;;9.40;6.68;;;28.10;1.00;;;;;;5062722;28;20209;-82
2023/07/08 09:17:01;;;;;;;11.38;6.03;;;28.40;99.90;;;;;;5076116;28;20158;-76
2023/07/08 09:19:34;;;;;;;9.93;5.68;;;28.70;1.00;;;;;;5073786;28;20162;-75
2023/07/08 09:22:09;;;;;;;9.18;5.88;;;29.00;99.90;;;;;;5073334;28;20168;-74
2023/07/08 09:24:42;;;;;;;10.50;5.88;;;29.20;99.90;;;;;;5073176;28;20246;-75
2023/07/08 09:27:08;;;;;;;9.77;6.03;;;29.30;99.90;;;;;;5073568;28;20162;-75
2023/07/08 09:29:34;;;;;;;10.68;5.82;;;29.40;1.00;;;;;;5073508;28;20253;-75
2023/07/08 09:32:15;;;;;;;9.65;6.10;;;29.60;8.90;;;;;;5073571;28;20181;-75
2023/07/08 09:34:56;;;;;;;13.82;6.78;;;29.80;1.00;;;;;;5073495;28;20237;-75
2023/07/08 09:37:23;;;;;;;11.23;6.10;;;29.90;1.00;;;;;;5073318;28;20181;-75
2023/07/08 09:39:49;;;;;;;8.07;5.70;;;30.00;1.00;;;;;;5073041;28;20170;-75
2023/07/08 09:42:16;;;;;;;11.20;6.40;;;30.10;1.00;;;;;;5073667;28;20767;-77
2023/07/08 09:44:44;;;;;;;7.55;5.22;;;29.80;1.00;;;;;;5056128;28;20573;-75
2023/07/08 09:47:34;;;;;;;8.93;5.43;;;29.80;1.00;;;;;;5055820;28;20182;-72
2023/07/08 09:50:00;;;;;;;11.35;5.82;;;29.90;1.00;;;;;;5074283;28;20177;-75
2023/07/08 09:52:29;;;;;;;8.88;5.75;;;30.00;1.00;;;;;;5059226;28;20182;-74
2023/07/08 09:54:55;;;;;;;7.85;5.70;;;30.10;1.00;;;;;;5060667;28;20213;-75
2023/07/08 09:57:29;;;;;;;10.02;5.75;;;30.20;1.00;;;;;;5078878;28;20170;-75
2023/07/08 10:00:03;;;;;;;9.57;6.00;;;30.30;1.00;;;;;;5079560;28;20519;-75
2023/07/08 10:02:53;;;;;;;11.73;5.75;;;30.30;1.00;;;;;;5060098;28;20249;-74
2023/07/08 10:05:26;;;;;;;10.25;5.78;;;30.40;1.00;;;;;;5066063;28;20213;-74
2023/07/08 10:07:55;;;;;;;7.75;5.25;;;30.50;1.00;;;;;;5077046;28;20194;-74
2023/07/08 10:10:33;;;;;;;7.05;5.15;;;30.60;1.00;;;;;;5077053;28;20634;-74
2023/07/08 10:13:03;;;;;;;6.82;4.65;;;30.50;1.00;;;;;;5059819;28;20188;-78
2023/07/08 10:16:13;;;;;;;6.88;4.18;;;30.60;15.40;;;;;;5080300;28;20174;-75
2023/07/08 10:18:39;;;;;;;7.40;4.13;;;30.80;1.00;;;;;;5067618;28;20185;-75
2023/07/08 10:21:28;;;;;;;5.97;3.85;;;30.80;1.00;;;;;;5076946;28;20268;-75
2023/07/08 10:24:18;;;;;;;8.30;4.60;;;30.80;1.00;;;;;;5059006;28;20202;-75
2023/07/08 10:26:49;;;;;;;10.52;4.40;;;30.90;1.00;;;;;;5077177;28;20219;-74
2023/07/08 10:29:24;;;;;;;7.03;4.88;;;31.10;1.00;;;;;;5078019;28;20169;-74
2023/07/08 10:31:54;;;;;;;7.22;4.60;;;31.10;1.00;;;;;;5061424;28;20637;-75
2023/07/08 10:34:22;;;;;;;7.93;4.53;;;31.20;1.00;;;;;;5078558;28;20209;-77
2023/07/08 10:37:08;;;;;;;8.80;4.68;;;31.30;1.00;;;;;;5078050;28;20178;-78
2023/07/08 10:39:49;;;;;;;8.27;4.72;;;31.30;1.00;;;;;;5077110;28;20205;-78
2023/07/08 10:42:25;;;;;;;6.72;4.55;;;31.30;1.00;;;;;;5059288;28;20173;-78
2023/07/08 10:45:15;;;;;;;8.45;4.07;;;31.30;1.00;;;;;;5077056;28;20582;-78
2023/07/08 10:48:10;;;;;;;6.05;4.30;;;31.30;1.00;;;;;;5059352;28;20648;-78
2023/07/08 10:50:50;;;;;;;6.72;4.72;;;31.30;1.00;;;;;;5005792;28;20195;-77
2023/07/08 10:53:51;;;;;;;7.07;4.25;;;31.30;1.00;;;;;;5058789;28;20214;-77
2023/07/08 10:56:40;;;;;;;6.85;4.28;;;31.40;1.00;;;;;;5034466;28;20554;-77
2023/07/08 10:59:31;;;;;;;6.63;4.50;;;31.50;13.90;;;;;;5058368;28;20651;-77
2023/07/08 11:02:11;;;;;;;7.22;4.50;;;31.50;17.40;;;;;;5076414;28;20611;-78
2023/07/08 11:04:45;;;;;;;7.43;4.07;;;31.60;99.90;;;;;;5076248;28;20189;-77
2023/07/08 11:07:43;;;;;;;7.75;4.05;;;31.60;1.00;;;;;;5076679;28;20185;-77
2023/07/08 11:10:22;;;;;;;7.03;4.22;;;31.60;1.00;;;;;;5037730;28;20194;-79
2023/07/08 11:13:03;;;;;;;8.73;4.72;;;31.40;1.00;;;;;;5057995;28;20185;-79
2023/07/08 11:15:54;;;;;;;6.63;4.15;;;31.50;33.70;;;;;;5076838;28;20607;-78
2023/07/08 11:18:43;;;;;;;13.38;4.10;;;31.40;99.90;;;;;;5058682;28;20197;-81
2023/07/08 11:21:43;;;;;;;7.40;4.60;;;31.60;27.90;;;;;;5077112;28;20186;-81
2023/07/08 11:24:16;;;;;;;5.70;4.20;;;31.70;77.20;;;;;;5059920;28;20213;-84
2023/07/08 11:26:48;;;;;;;7.00;4.10;;;31.80;99.90;;;;;;5060659;28;20205;-83
2023/07/08 11:29:37;;;;;;;9.10;4.22;;;31.90;34.30;;;;;;5059183;28;20177;-83
2023/07/08 11:32:06;;;;;;;7.22;4.50;;;32.00;1.00;;;;;;5060261;28;20170;-83
2023/07/08 11:34:33;;;;;;;8.18;4.43;;;32.10;1.00;;;;;;5060495;28;20618;-78
2023/07/08 11:37:00;;;;;;;8.65;4.60;;;32.30;1.00;;;;;;5059619;28;20182;-85
2023/07/08 11:39:40;;;;;;;8.13;4.38;;;32.40;20.50;;;;;;5076953;28;20581;-79
2023/07/08 11:42:18;;;;;;;6.38;4.15;;;32.50;7.10;;;;;;5076809;28;20503;-83
2023/07/08 11:44:51;;;;;;;7.65;4.60;;;32.40;17.10;;;;;;5077080;28;20572;-81
2023/07/08 11:47:24;;;;;;;7.55;4.75;;;32.30;99.90;;;;;;5059566;28;20174;-81
2023/07/08 11:49:53;;;;;;;6.45;4.00;;;32.30;99.90;;;;;;5078586;28;20231;-80
2023/07/08 11:52:22;;;;;;;7.60;4.03;;;32.50;22.00;;;;;;5060333;28;20185;-80
2023/07/08 11:54:55;;;;;;;9.07;4.90;;;32.60;79.60;;;;;;5059757;28;20634;-79
2023/07/08 11:57:30;;;;;;;8.43;4.97;;;32.60;99.90;;;;;;5077150;28;20154;-79
2023/07/08 12:00:22;;;;;;;8.02;4.38;;;32.80;68.80;;;;;;5059796;28;20612;-79
2023/07/08 12:03:03;;;;;;;8.15;4.60;;;32.90;18.90;;;;;;5060128;28;20229;-82
2023/07/08 12:05:38;;;;;;;6.20;4.03;;;33.00;27.60;;;;;;5078166;28;20154;-81
2023/07/08 12:08:14;;;;;;;8.23;4.10;;;33.10;32.90;;;;;;5060096;28;20174;-79
2023/07/08 12:10:47;;;;;;;8.05;4.10;;;33.20;99.90;;;;;;5077049;28;20146;-80
2023/07/08 12:13:20;;;;;;;9.65;4.05;;;33.20;99.90;;;;;;5058462;28;20244;-82
2023/07/08 12:15:45;;;;;;;6.88;4.03;;;33.20;99.90;;;;;;5058399;28;20162;-82
2023/07/08 12:18:34;;;;;;;6.32;3.67;;;33.40;86.00;;;;;;5076162;28;20185;-82
2023/07/08 12:21:01;;;;;;;6.28;4.38;;;33.30;99.90;;;;;;5077064;28;20186;-82
2023/07/08 12:23:28;;;;;;;7.55;4.32;;;33.30;99.90;;;;;;5058474;28;20318;-81
2023/07/08 12:25:55;;;;;;;8.55;4.38;;;33.30;99.90;;;;;;5057828;28;20215;-81
2023/07/08 12:28:22;;;;;;;6.57;4.05;;;33.60;99.90;;;;;;5057646;28;20708;-81
2023/07/08 12:30:50;;;;;;;6.82;4.30;;;33.60;99.90;;;;;;5057959;28;20169;-81
2023/07/08 12:33:32;;;;;;;7.05;3.70;;;33.40;99.90;;;;;;5057488;28;20209;-81
2023/07/08 12:36:00;;;;;;;6.88;4.05;;;33.50;99.90;;;;;;5057332;28;20653;-81
2023/07/08 12:38:35;;;;;;;7.15;4.10;;;33.40;99.90;;;;;;5057355;28;20189;-81
2023/07/08 12:41:05;;;;;;;6.95;3.88;;;33.50;99.90;;;;;;5075378;28;20190;-80
2023/07/08 12:43:31;;;;;;;6.85;4.18;;;33.40;99.90;;;;;;5075304;28;20225;-81
2023/07/08 12:45:58;;;;;;;8.38;4.00;;;33.60;1.00;;;;;;5057589;28;20177;-80
2023/07/08 12:48:23;;;;;;;7.95;4.70;;;33.80;99.90;;;;;;5057126;28;20182;-81
2023/07/08 12:50:50;;;;;;;6.40;4.35;;;34.00;1.00;;;;;;5057720;28;20751;-80
2023/07/08 12:53:15;;;;;;;10.07;3.90;;;34.10;1.00;;;;;;5057648;28;20205;-80
2023/07/08 12:55:44;;;;;;;7.72;4.45;;;34.10;99.90;;;;;;5077805;28;20250;-82
2023/07/08 12:58:19;;;;;;;7.32;3.92;;;34.40;1.00;;;;;;5059208;28;20170;-82
2023/07/08 13:00:46;;;;;;;5.88;4.15;;;34.30;99.90;;;;;;5077610;28;20218;-82
2023/07/08 13:03:18;;;;;;;7.05;3.65;;;34.20;99.90;;;;;;5059087;28;20208;-82